sensor_id;sensor_type;location;lat;lon;timestamp;P1;durP1;ratioP1;P2;durP2;ratioP2
20657;SDS011;10488;50.846;4.078;2024-02-26T00:00:27;2.88;;;1.55;;
20657;SDS011;10488;50.846;4.078;2024-02-26T00:02:54;4.03;;;1.95;;
20657;SDS011;10488;50.846;4.078;2024-02-26T00:05:20;2.20;;;1.30;;
20657;SDS011;10488;50.846;4.078;2024-02-26T00:07:45;3.55;;;1.63;;
20657;SDS011;10488;50.846;4.078;2024-02-26T00:10:12;3.40;;;1.58;;
20657;SDS011;10488;50.846;4.078;2024-02-26T00:12:38;3.65;;;1.85;;
20657;SDS011;10488;50.846;4.078;2024-02-26T00:15:08;3.35;;;1.88;;
20657;SDS011;10488;50.846;4.078;2024-02-26T00:17:34;2.15;;;1.50;;
20657;SDS011;10488;50.846;4.078;2024-02-26T00:20:00;7.47;;;2.00;;
20657;SDS011;10488;50.846;4.078;2024-02-26T00:22:29;2.80;;;1.60;;
20657;SDS011;10488;50.846;4.078;2024-02-26T00:24:55;3.05;;;1.80;;
20657;SDS011;10488;50.846;4.078;2024-02-26T00:27:21;6.22;;;2.72;;
20657;SDS011;10488;50.846;4.078;2024-02-26T00:29:46;4.95;;;1.50;;
20657;SDS011;10488;50.846;4.078;2024-02-26T00:32:12;4.28;;;1.70;;
20657;SDS011;10488;50.846;4.078;2024-02-26T00:34:37;5.18;;;1.75;;
20657;SDS011;10488;50.846;4.078;2024-02-26T00:37:03;3.17;;;1.73;;
20657;SDS011;10488;50.846;4.078;2024-02-26T00:39:29;3.75;;;2.10;;
20657;SDS011;10488;50.846;4.078;2024-02-26T00:41:54;3.25;;;1.58;;
20657;SDS011;10488;50.846;4.078;2024-02-26T00:44:20;4.95;;;1.60;;
20657;SDS011;10488;50.846;4.078;2024-02-26T00:46:45;3.58;;;1.90;;
20657;SDS011;10488;50.846;4.078;2024-02-26T00:49:11;2.50;;;1.45;;
20657;SDS011;10488;50.846;4.078;2024-02-26T00:51:37;3.13;;;1.55;;
20657;SDS011;10488;50.846;4.078;2024-02-26T00:54:02;2.50;;;1.50;;
20657;SDS011;10488;50.846;4.078;2024-02-26T00:56:28;4.78;;;1.70;;
20657;SDS011;10488;50.846;4.078;2024-02-26T00:58:53;5.95;;;1.42;;
20657;SDS011;10488;50.846;4.078;2024-02-26T01:01:19;2.55;;;1.73;;
20657;SDS011;10488;50.846;4.078;2024-02-26T01:03:45;3.03;;;1.38;;
20657;SDS011;10488;50.846;4.078;2024-02-26T01:06:10;3.15;;;1.50;;
20657;SDS011;10488;50.846;4.078;2024-02-26T01:08:36;2.72;;;1.60;;
20657;SDS011;10488;50.846;4.078;2024-02-26T01:11:02;3.38;;;1.30;;
20657;SDS011;10488;50.846;4.078;2024-02-26T01:13:28;2.33;;;1.35;;
20657;SDS011;10488;50.846;4.078;2024-02-26T01:15:54;1.77;;;1.50;;
20657;SDS011;10488;50.846;4.078;2024-02-26T01:18:20;2.28;;;1.58;;
20657;SDS011;10488;50.846;4.078;2024-02-26T01:20:45;2.33;;;1.48;;
20657;SDS011;10488;50.846;4.078;2024-02-26T01:23:12;3.70;;;1.23;;
20657;SDS011;10488;50.846;4.078;2024-02-26T01:25:37;4.50;;;1.50;;
20657;SDS011;10488;50.846;4.078;2024-02-26T01:28:04;2.88;;;1.65;;
20657;SDS011;10488;50.846;4.078;2024-02-26T01:30:30;7.18;;;1.23;;
20657;SDS011;10488;50.846;4.078;2024-02-26T01:32:56;1.23;;;1.13;;
20657;SDS011;10488;50.846;4.078;2024-02-26T01:35:22;5.43;;;1.13;;
20657;SDS011;10488;50.846;4.078;2024-02-26T01:37:47;1.75;;;1.10;;
20657;SDS011;10488;50.846;4.078;2024-02-26T01:40:13;5.53;;;1.77;;
20657;SDS011;10488;50.846;4.078;2024-02-26T01:42:44;3.05;;;1.30;;
20657;SDS011;10488;50.846;4.078;2024-02-26T01:45:12;2.08;;;1.42;;
20657;SDS011;10488;50.846;4.078;2024-02-26T01:47:41;2.00;;;0.93;;
20657;SDS011;10488;50.846;4.078;2024-02-26T01:50:07;2.15;;;1.60;;
20657;SDS011;10488;50.846;4.078;2024-02-26T01:52:33;2.97;;;1.50;;
20657;SDS011;10488;50.846;4.078;2024-02-26T01:54:59;1.58;;;1.48;;
20657;SDS011;10488;50.846;4.078;2024-02-26T01:57:26;2.97;;;1.50;;
20657;SDS011;10488;50.846;4.078;2024-02-26T01:59:52;2.63;;;1.75;;
20657;SDS011;10488;50.846;4.078;2024-02-26T02:02:18;1.70;;;1.60;;
20657;SDS011;10488;50.846;4.078;2024-02-26T02:04:44;3.10;;;1.52;;
20657;SDS011;10488;50.846;4.078;2024-02-26T02:07:10;6.53;;;1.80;;
20657;SDS011;10488;50.846;4.078;2024-02-26T02:09:36;1.70;;;1.10;;
20657;SDS011;10488;50.846;4.078;2024-02-26T02:12:01;3.30;;;1.25;;
20657;SDS011;10488;50.846;4.078;2024-02-26T02:14:27;2.58;;;1.13;;
20657;SDS011;10488;50.846;4.078;2024-02-26T02:16:53;6.75;;;1.40;;
20657;SDS011;10488;50.846;4.078;2024-02-26T02:19:18;2.15;;;1.17;;
20657;SDS011;10488;50.846;4.078;2024-02-26T02:21:44;1.88;;;1.45;;
20657;SDS011;10488;50.846;4.078;2024-02-26T02:24:10;2.17;;;1.33;;
20657;SDS011;10488;50.846;4.078;2024-02-26T02:26:35;2.42;;;1.38;;
20657;SDS011;10488;50.846;4.078;2024-02-26T02:29:01;3.55;;;1.20;;
20657;SDS011;10488;50.846;4.078;2024-02-26T02:31:27;1.45;;;1.10;;
20657;SDS011;10488;50.846;4.078;2024-02-26T02:33:53;1.75;;;1.30;;
20657;SDS011;10488;50.846;4.078;2024-02-26T02:36:19;2.72;;;1.48;;
20657;SDS011;10488;50.846;4.078;2024-02-26T02:38:50;1.83;;;1.20;;
20657;SDS011;10488;50.846;4.078;2024-02-26T02:41:16;3.60;;;1.42;;
20657;SDS011;10488;50.846;4.078;2024-02-26T02:43:42;1.27;;;1.17;;
20657;SDS011;10488;50.846;4.078;2024-02-26T02:46:07;3.53;;;1.27;;
20657;SDS011;10488;50.846;4.078;2024-02-26T02:48:33;1.65;;;1.25;;
20657;SDS011;10488;50.846;4.078;2024-02-26T02:50:58;1.42;;;0.90;;
20657;SDS011;10488;50.846;4.078;2024-02-26T02:53:24;2.45;;;1.00;;
20657;SDS011;10488;50.846;4.078;2024-02-26T02:55:50;1.98;;;1.35;;
20657;SDS011;10488;50.846;4.078;2024-02-26T02:58:15;2.75;;;1.25;;
20657;SDS011;10488;50.846;4.078;2024-02-26T03:00:41;1.65;;;1.00;;
20657;SDS011;10488;50.846;4.078;2024-02-26T03:03:06;1.75;;;1.05;;
20657;SDS011;10488;50.846;4.078;2024-02-26T03:05:32;2.28;;;1.00;;
20657;SDS011;10488;50.846;4.078;2024-02-26T03:07:58;1.00;;;1.00;;
20657;SDS011;10488;50.846;4.078;2024-02-26T03:10:23;1.38;;;1.00;;
20657;SDS011;10488;50.846;4.078;2024-02-26T03:12:49;3.00;;;1.05;;
20657;SDS011;10488;50.846;4.078;2024-02-26T03:15:15;1.55;;;1.10;;
20657;SDS011;10488;50.846;4.078;2024-02-26T03:17:41;1.90;;;1.40;;
20657;SDS011;10488;50.846;4.078;2024-02-26T03:20:07;2.38;;;1.10;;
20657;SDS011;10488;50.846;4.078;2024-02-26T03:22:34;1.60;;;1.27;;
20657;SDS011;10488;50.846;4.078;2024-02-26T03:25:00;2.10;;;1.25;;
20657;SDS011;10488;50.846;4.078;2024-02-26T03:27:26;4.28;;;1.30;;
20657;SDS011;10488;50.846;4.078;2024-02-26T03:29:51;2.90;;;1.20;;
20657;SDS011;10488;50.846;4.078;2024-02-26T03:32:17;3.65;;;1.48;;
20657;SDS011;10488;50.846;4.078;2024-02-26T03:34:43;3.42;;;1.67;;
20657;SDS011;10488;50.846;4.078;2024-02-26T03:37:09;2.58;;;1.38;;
20657;SDS011;10488;50.846;4.078;2024-02-26T03:39:36;1.98;;;1.40;;
20657;SDS011;10488;50.846;4.078;2024-02-26T03:42:02;2.28;;;1.83;;
20657;SDS011;10488;50.846;4.078;2024-02-26T03:44:28;1.80;;;1.70;;
20657;SDS011;10488;50.846;4.078;2024-02-26T03:46:53;1.80;;;1.70;;
20657;SDS011;10488;50.846;4.078;2024-02-26T03:49:19;4.60;;;2.35;;
20657;SDS011;10488;50.846;4.078;2024-02-26T03:51:45;2.65;;;2.28;;
20657;SDS011;10488;50.846;4.078;2024-02-26T03:54:10;8.27;;;2.53;;
20657;SDS011;10488;50.846;4.078;2024-02-26T03:56:36;5.03;;;2.60;;
20657;SDS011;10488;50.846;4.078;2024-02-26T03:59:01;5.05;;;2.28;;
20657;SDS011;10488;50.846;4.078;2024-02-26T04:01:27;2.67;;;2.47;;
20657;SDS011;10488;50.846;4.078;2024-02-26T04:03:54;3.97;;;2.80;;
20657;SDS011;10488;50.846;4.078;2024-02-26T04:06:20;3.58;;;2.88;;
20657;SDS011;10488;50.846;4.078;2024-02-26T04:08:48;4.85;;;3.28;;
20657;SDS011;10488;50.846;4.078;2024-02-26T04:11:14;4.63;;;3.15;;
20657;SDS011;10488;50.846;4.078;2024-02-26T04:13:43;4.90;;;3.30;;
20657;SDS011;10488;50.846;4.078;2024-02-26T04:16:11;4.10;;;3.25;;
20657;SDS011;10488;50.846;4.078;2024-02-26T04:18:36;4.15;;;3.40;;
20657;SDS011;10488;50.846;4.078;2024-02-26T04:21:03;5.10;;;3.80;;
20657;SDS011;10488;50.846;4.078;2024-02-26T04:23:30;4.35;;;3.80;;
20657;SDS011;10488;50.846;4.078;2024-02-26T04:25:56;5.97;;;4.70;;
20657;SDS011;10488;50.846;4.078;2024-02-26T04:28:21;6.40;;;5.18;;
20657;SDS011;10488;50.846;4.078;2024-02-26T04:30:47;5.90;;;4.60;;
20657;SDS011;10488;50.846;4.078;2024-02-26T04:33:13;7.68;;;4.93;;
20657;SDS011;10488;50.846;4.078;2024-02-26T04:35:39;7.22;;;5.40;;
20657;SDS011;10488;50.846;4.078;2024-02-26T04:38:05;7.13;;;4.97;;
20657;SDS011;10488;50.846;4.078;2024-02-26T04:40:30;6.60;;;5.63;;
20657;SDS011;10488;50.846;4.078;2024-02-26T04:42:56;11.10;;;6.13;;
20657;SDS011;10488;50.846;4.078;2024-02-26T04:45:22;8.55;;;6.68;;
20657;SDS011;10488;50.846;4.078;2024-02-26T04:47:48;9.15;;;5.75;;
20657;SDS011;10488;50.846;4.078;2024-02-26T04:50:13;8.80;;;6.10;;
20657;SDS011;10488;50.846;4.078;2024-02-26T04:52:39;8.45;;;6.18;;
20657;SDS011;10488;50.846;4.078;2024-02-26T04:55:04;9.95;;;6.38;;
20657;SDS011;10488;50.846;4.078;2024-02-26T04:57:30;8.23;;;5.82;;
20657;SDS011;10488;50.846;4.078;2024-02-26T04:59:56;10.95;;;6.40;;
20657;SDS011;10488;50.846;4.078;2024-02-26T05:02:21;8.48;;;6.28;;
20657;SDS011;10488;50.846;4.078;2024-02-26T05:04:47;10.77;;;6.35;;
20657;SDS011;10488;50.846;4.078;2024-02-26T05:07:13;8.77;;;6.45;;
20657;SDS011;10488;50.846;4.078;2024-02-26T05:09:38;10.18;;;6.47;;
20657;SDS011;10488;50.846;4.078;2024-02-26T05:12:05;6.95;;;5.88;;
20657;SDS011;10488;50.846;4.078;2024-02-26T05:14:30;9.45;;;6.18;;
20657;SDS011;10488;50.846;4.078;2024-02-26T05:16:56;9.27;;;6.13;;
20657;SDS011;10488;50.846;4.078;2024-02-26T05:19:22;8.68;;;6.45;;
20657;SDS011;10488;50.846;4.078;2024-02-26T05:21:47;10.35;;;7.35;;
20657;SDS011;10488;50.846;4.078;2024-02-26T05:24:15;9.90;;;6.72;;
20657;SDS011;10488;50.846;4.078;2024-02-26T05:26:42;10.88;;;7.70;;
20657;SDS011;10488;50.846;4.078;2024-02-26T05:29:08;10.65;;;8.02;;
20657;SDS011;10488;50.846;4.078;2024-02-26T05:31:34;12.10;;;7.95;;
20657;SDS011;10488;50.846;4.078;2024-02-26T05:33:59;13.18;;;8.73;;
20657;SDS011;10488;50.846;4.078;2024-02-26T05:36:25;14.75;;;8.73;;
20657;SDS011;10488;50.846;4.078;2024-02-26T05:38:51;14.98;;;9.50;;
20657;SDS011;10488;50.846;4.078;2024-02-26T05:41:16;14.00;;;11.07;;
20657;SDS011;10488;50.846;4.078;2024-02-26T05:43:48;16.13;;;11.05;;
20657;SDS011;10488;50.846;4.078;2024-02-26T05:46:16;15.30;;;10.52;;
20657;SDS011;10488;50.846;4.078;2024-02-26T05:48:48;16.90;;;11.20;;
20657;SDS011;10488;50.846;4.078;2024-02-26T05:51:15;13.82;;;10.70;;
20657;SDS011;10488;50.846;4.078;2024-02-26T05:53:41;18.40;;;11.90;;
20657;SDS011;10488;50.846;4.078;2024-02-26T05:56:07;17.13;;;12.45;;
20657;SDS011;10488;50.846;4.078;2024-02-26T05:58:32;17.98;;;12.27;;
20657;SDS011;10488;50.846;4.078;2024-02-26T06:00:58;20.08;;;13.27;;
20657;SDS011;10488;50.846;4.078;2024-02-26T06:03:25;16.85;;;12.60;;
20657;SDS011;10488;50.846;4.078;2024-02-26T06:05:51;18.55;;;13.00;;
20657;SDS011;10488;50.846;4.078;2024-02-26T06:08:16;19.58;;;13.35;;
20657;SDS011;10488;50.846;4.078;2024-02-26T06:10:42;18.75;;;13.40;;
20657;SDS011;10488;50.846;4.078;2024-02-26T06:13:07;17.17;;;13.02;;
20657;SDS011;10488;50.846;4.078;2024-02-26T06:15:33;18.67;;;13.82;;
20657;SDS011;10488;50.846;4.078;2024-02-26T06:17:59;18.25;;;14.15;;
20657;SDS011;10488;50.846;4.078;2024-02-26T06:20:24;17.40;;;13.55;;
20657;SDS011;10488;50.846;4.078;2024-02-26T06:22:50;17.05;;;12.90;;
20657;SDS011;10488;50.846;4.078;2024-02-26T06:25:16;16.13;;;12.65;;
20657;SDS011;10488;50.846;4.078;2024-02-26T06:27:41;15.85;;;12.27;;
20657;SDS011;10488;50.846;4.078;2024-02-26T06:30:07;17.23;;;13.68;;
20657;SDS011;10488;50.846;4.078;2024-02-26T06:32:36;17.13;;;12.00;;
20657;SDS011;10488;50.846;4.078;2024-02-26T06:35:06;14.88;;;12.43;;
20657;SDS011;10488;50.846;4.078;2024-02-26T06:37:34;14.52;;;12.02;;
20657;SDS011;10488;50.846;4.078;2024-02-26T06:40:00;14.45;;;12.57;;
20657;SDS011;10488;50.846;4.078;2024-02-26T06:42:28;13.85;;;11.45;;
20657;SDS011;10488;50.846;4.078;2024-02-26T06:44:55;15.02;;;11.90;;
20657;SDS011;10488;50.846;4.078;2024-02-26T06:47:21;15.50;;;11.32;;
20657;SDS011;10488;50.846;4.078;2024-02-26T06:49:46;14.30;;;11.80;;
20657;SDS011;10488;50.846;4.078;2024-02-26T06:52:12;18.35;;;11.77;;
20657;SDS011;10488;50.846;4.078;2024-02-26T06:54:37;14.88;;;12.38;;
20657;SDS011;10488;50.846;4.078;2024-02-26T06:57:03;15.02;;;11.88;;
20657;SDS011;10488;50.846;4.078;2024-02-26T06:59:29;16.58;;;11.93;;
20657;SDS011;10488;50.846;4.078;2024-02-26T07:01:54;14.40;;;11.40;;
20657;SDS011;10488;50.846;4.078;2024-02-26T07:04:20;19.55;;;12.85;;
20657;SDS011;10488;50.846;4.078;2024-02-26T07:06:46;14.70;;;12.43;;
20657;SDS011;10488;50.846;4.078;2024-02-26T07:09:12;14.18;;;11.43;;
20657;SDS011;10488;50.846;4.078;2024-02-26T07:11:38;14.40;;;11.70;;
20657;SDS011;10488;50.846;4.078;2024-02-26T07:14:11;14.23;;;12.05;;
20657;SDS011;10488;50.846;4.078;2024-02-26T07:16:37;15.63;;;12.40;;
20657;SDS011;10488;50.846;4.078;2024-02-26T07:19:03;15.73;;;12.45;;
20657;SDS011;10488;50.846;4.078;2024-02-26T07:21:29;15.10;;;12.85;;
20657;SDS011;10488;50.846;4.078;2024-02-26T07:23:55;15.98;;;13.05;;
20657;SDS011;10488;50.846;4.078;2024-02-26T07:26:21;15.65;;;12.70;;
20657;SDS011;10488;50.846;4.078;2024-02-26T07:28:49;16.33;;;13.52;;
20657;SDS011;10488;50.846;4.078;2024-02-26T07:31:15;18.95;;;14.52;;
20657;SDS011;10488;50.846;4.078;2024-02-26T07:33:42;13.98;;;12.02;;
20657;SDS011;10488;50.846;4.078;2024-02-26T07:36:07;16.40;;;12.82;;
20657;SDS011;10488;50.846;4.078;2024-02-26T07:38:33;13.60;;;11.32;;
20657;SDS011;10488;50.846;4.078;2024-02-26T07:40:59;20.17;;;14.63;;
20657;SDS011;10488;50.846;4.078;2024-02-26T07:43:27;18.63;;;13.38;;
20657;SDS011;10488;50.846;4.078;2024-02-26T07:45:53;13.60;;;12.05;;
20657;SDS011;10488;50.846;4.078;2024-02-26T07:48:18;18.40;;;14.25;;
20657;SDS011;10488;50.846;4.078;2024-02-26T07:50:44;18.23;;;15.60;;
20657;SDS011;10488;50.846;4.078;2024-02-26T07:53:10;48.35;;;31.98;;
20657;SDS011;10488;50.846;4.078;2024-02-26T07:55:35;35.08;;;24.40;;
20657;SDS011;10488;50.846;4.078;2024-02-26T07:58:01;14.48;;;11.20;;
20657;SDS011;10488;50.846;4.078;2024-02-26T08:00:27;15.20;;;11.82;;
20657;SDS011;10488;50.846;4.078;2024-02-26T08:02:52;13.10;;;10.82;;
20657;SDS011;10488;50.846;4.078;2024-02-26T08:05:18;11.68;;;10.23;;
20657;SDS011;10488;50.846;4.078;2024-02-26T08:07:44;12.52;;;9.55;;
20657;SDS011;10488;50.846;4.078;2024-02-26T08:10:10;13.15;;;10.43;;
20657;SDS011;10488;50.846;4.078;2024-02-26T08:12:38;12.73;;;9.27;;
20657;SDS011;10488;50.846;4.078;2024-02-26T08:15:04;13.05;;;9.38;;
20657;SDS011;10488;50.846;4.078;2024-02-26T08:17:30;10.27;;;9.15;;
20657;SDS011;10488;50.846;4.078;2024-02-26T08:19:58;10.73;;;9.13;;
20657;SDS011;10488;50.846;4.078;2024-02-26T08:22:24;10.18;;;8.45;;
20657;SDS011;10488;50.846;4.078;2024-02-26T08:24:49;13.85;;;11.85;;
20657;SDS011;10488;50.846;4.078;2024-02-26T08:27:15;21.70;;;16.08;;
20657;SDS011;10488;50.846;4.078;2024-02-26T08:29:41;10.02;;;8.73;;
20657;SDS011;10488;50.846;4.078;2024-02-26T08:32:06;10.88;;;9.00;;
20657;SDS011;10488;50.846;4.078;2024-02-26T08:34:32;10.23;;;8.60;;
20657;SDS011;10488;50.846;4.078;2024-02-26T08:36:58;11.07;;;9.45;;
20657;SDS011;10488;50.846;4.078;2024-02-26T08:39:23;10.82;;;8.68;;
20657;SDS011;10488;50.846;4.078;2024-02-26T08:41:51;13.55;;;10.95;;
20657;SDS011;10488;50.846;4.078;2024-02-26T08:44:16;8.70;;;7.80;;
20657;SDS011;10488;50.846;4.078;2024-02-26T08:46:42;7.95;;;7.15;;
20657;SDS011;10488;50.846;4.078;2024-02-26T08:49:08;9.15;;;8.25;;
20657;SDS011;10488;50.846;4.078;2024-02-26T08:51:33;8.65;;;7.22;;
20657;SDS011;10488;50.846;4.078;2024-02-26T08:53:59;11.38;;;7.97;;
20657;SDS011;10488;50.846;4.078;2024-02-26T08:56:25;11.45;;;9.88;;
20657;SDS011;10488;50.846;4.078;2024-02-26T08:58:50;7.93;;;6.88;;
20657;SDS011;10488;50.846;4.078;2024-02-26T09:01:18;8.23;;;6.85;;
20657;SDS011;10488;50.846;4.078;2024-02-26T09:03:44;9.27;;;7.75;;
20657;SDS011;10488;50.846;4.078;2024-02-26T09:06:10;10.60;;;8.70;;
20657;SDS011;10488;50.846;4.078;2024-02-26T09:08:39;9.20;;;8.20;;
20657;SDS011;10488;50.846;4.078;2024-02-26T09:11:04;8.20;;;7.07;;
20657;SDS011;10488;50.846;4.078;2024-02-26T09:13:30;10.43;;;8.15;;
20657;SDS011;10488;50.846;4.078;2024-02-26T09:15:56;9.68;;;8.05;;
20657;SDS011;10488;50.846;4.078;2024-02-26T09:18:21;10.48;;;8.90;;
20657;SDS011;10488;50.846;4.078;2024-02-26T09:20:47;9.20;;;8.25;;
20657;SDS011;10488;50.846;4.078;2024-02-26T09:23:13;9.35;;;8.00;;
20657;SDS011;10488;50.846;4.078;2024-02-26T09:25:38;8.60;;;6.80;;
20657;SDS011;10488;50.846;4.078;2024-02-26T09:28:04;11.73;;;8.20;;
20657;SDS011;10488;50.846;4.078;2024-02-26T09:30:31;10.60;;;8.20;;
20657;SDS011;10488;50.846;4.078;2024-02-26T09:32:56;8.95;;;7.90;;
20657;SDS011;10488;50.846;4.078;2024-02-26T09:35:22;11.05;;;8.80;;
20657;SDS011;10488;50.846;4.078;2024-02-26T09:37:47;10.32;;;8.40;;
20657;SDS011;10488;50.846;4.078;2024-02-26T09:40:14;11.88;;;9.48;;
20657;SDS011;10488;50.846;4.078;2024-02-26T09:42:43;10.70;;;8.57;;
20657;SDS011;10488;50.846;4.078;2024-02-26T09:45:19;11.50;;;9.05;;
20657;SDS011;10488;50.846;4.078;2024-02-26T09:47:47;10.05;;;7.72;;
20657;SDS011;10488;50.846;4.078;2024-02-26T09:50:15;10.13;;;8.68;;
20657;SDS011;10488;50.846;4.078;2024-02-26T09:52:43;10.60;;;8.18;;
20657;SDS011;10488;50.846;4.078;2024-02-26T09:55:11;10.35;;;8.40;;
20657;SDS011;10488;50.846;4.078;2024-02-26T09:57:37;10.93;;;8.25;;
20657;SDS011;10488;50.846;4.078;2024-02-26T10:00:06;9.18;;;8.02;;
20657;SDS011;10488;50.846;4.078;2024-02-26T10:02:35;8.82;;;7.93;;
20657;SDS011;10488;50.846;4.078;2024-02-26T10:05:03;8.93;;;7.25;;
20657;SDS011;10488;50.846;4.078;2024-02-26T10:07:32;12.02;;;7.60;;
20657;SDS011;10488;50.846;4.078;2024-02-26T10:09:59;9.77;;;7.85;;
20657;SDS011;10488;50.846;4.078;2024-02-26T10:12:26;17.77;;;11.65;;
20657;SDS011;10488;50.846;4.078;2024-02-26T10:14:53;9.02;;;7.57;;
20657;SDS011;10488;50.846;4.078;2024-02-26T10:17:19;7.35;;;5.90;;
20657;SDS011;10488;50.846;4.078;2024-02-26T10:19:45;9.23;;;6.95;;
20657;SDS011;10488;50.846;4.078;2024-02-26T10:22:11;8.57;;;6.90;;
20657;SDS011;10488;50.846;4.078;2024-02-26T10:24:36;9.25;;;7.97;;
20657;SDS011;10488;50.846;4.078;2024-02-26T10:27:02;8.18;;;6.60;;
20657;SDS011;10488;50.846;4.078;2024-02-26T10:29:28;10.63;;;7.45;;
20657;SDS011;10488;50.846;4.078;2024-02-26T10:31:54;8.23;;;6.55;;
20657;SDS011;10488;50.846;4.078;2024-02-26T10:34:20;13.73;;;11.25;;
20657;SDS011;10488;50.846;4.078;2024-02-26T10:36:46;7.88;;;7.05;;
20657;SDS011;10488;50.846;4.078;2024-02-26T10:39:13;9.15;;;7.00;;
20657;SDS011;10488;50.846;4.078;2024-02-26T10:41:43;7.00;;;6.30;;
20657;SDS011;10488;50.846;4.078;2024-02-26T10:44:09;7.55;;;6.03;;
20657;SDS011;10488;50.846;4.078;2024-02-26T10:46:41;9.63;;;6.75;;
20657;SDS011;10488;50.846;4.078;2024-02-26T10:49:12;8.68;;;6.05;;
20657;SDS011;10488;50.846;4.078;2024-02-26T10:51:41;9.02;;;7.00;;
20657;SDS011;10488;50.846;4.078;2024-02-26T10:54:16;8.20;;;6.53;;
20657;SDS011;10488;50.846;4.078;2024-02-26T10:56:43;9.43;;;6.10;;
20657;SDS011;10488;50.846;4.078;2024-02-26T10:59:12;6.88;;;6.18;;
20657;SDS011;10488;50.846;4.078;2024-02-26T11:01:39;7.57;;;6.25;;
20657;SDS011;10488;50.846;4.078;2024-02-26T11:04:06;8.07;;;6.50;;
20657;SDS011;10488;50.846;4.078;2024-02-26T11:06:33;8.52;;;5.82;;
20657;SDS011;10488;50.846;4.078;2024-02-26T11:09:00;7.53;;;6.70;;
20657;SDS011;10488;50.846;4.078;2024-02-26T11:11:27;7.60;;;6.80;;
20657;SDS011;10488;50.846;4.078;2024-02-26T11:13:54;8.50;;;6.72;;
20657;SDS011;10488;50.846;4.078;2024-02-26T11:16:22;8.18;;;6.72;;
20657;SDS011;10488;50.846;4.078;2024-02-26T11:18:48;8.45;;;5.72;;
20657;SDS011;10488;50.846;4.078;2024-02-26T11:21:15;6.47;;;5.80;;
20657;SDS011;10488;50.846;4.078;2024-02-26T11:23:42;6.65;;;5.95;;
20657;SDS011;10488;50.846;4.078;2024-02-26T11:26:09;7.50;;;6.18;;
20657;SDS011;10488;50.846;4.078;2024-02-26T11:28:36;7.93;;;6.30;;
20657;SDS011;10488;50.846;4.078;2024-02-26T11:31:03;6.05;;;5.28;;
20657;SDS011;10488;50.846;4.078;2024-02-26T11:33:30;7.15;;;6.45;;
20657;SDS011;10488;50.846;4.078;2024-02-26T11:35:56;8.43;;;6.05;;
20657;SDS011;10488;50.846;4.078;2024-02-26T11:38:22;7.55;;;6.43;;
20657;SDS011;10488;50.846;4.078;2024-02-26T11:40:50;7.00;;;5.90;;
20657;SDS011;10488;50.846;4.078;2024-02-26T11:43:17;6.80;;;6.03;;
20657;SDS011;10488;50.846;4.078;2024-02-26T11:50:40;8.23;;;5.47;;
20657;SDS011;10488;50.846;4.078;2024-02-26T11:53:26;6.82;;;5.40;;
20657;SDS011;10488;50.846;4.078;2024-02-26T11:56:12;6.93;;;5.72;;
20657;SDS011;10488;50.846;4.078;2024-02-26T11:58:58;7.90;;;5.45;;
20657;SDS011;10488;50.846;4.078;2024-02-26T12:04:11;7.80;;;5.32;;
20657;SDS011;10488;50.846;4.078;2024-02-26T12:06:44;6.07;;;5.47;;
20657;SDS011;10488;50.846;4.078;2024-02-26T12:12:08;8.00;;;5.53;;
20657;SDS011;10488;50.846;4.078;2024-02-26T12:14:52;6.30;;;4.88;;
20657;SDS011;10488;50.846;4.078;2024-02-26T12:17:27;6.70;;;5.40;;
20657;SDS011;10488;50.846;4.078;2024-02-26T12:19:53;5.72;;;5.22;;
20657;SDS011;10488;50.846;4.078;2024-02-26T12:22:20;6.55;;;5.20;;
20657;SDS011;10488;50.846;4.078;2024-02-26T12:24:46;8.68;;;5.95;;
20657;SDS011;10488;50.846;4.078;2024-02-26T12:27:12;7.95;;;5.28;;
20657;SDS011;10488;50.846;4.078;2024-02-26T12:29:37;5.30;;;4.47;;
20657;SDS011;10488;50.846;4.078;2024-02-26T12:32:04;4.93;;;4.43;;
20657;SDS011;10488;50.846;4.078;2024-02-26T12:34:31;5.57;;;4.68;;
20657;SDS011;10488;50.846;4.078;2024-02-26T12:36:56;5.60;;;4.97;;
20657;SDS011;10488;50.846;4.078;2024-02-26T12:39:22;6.13;;;5.13;;
20657;SDS011;10488;50.846;4.078;2024-02-26T12:41:48;7.95;;;6.38;;
20657;SDS011;10488;50.846;4.078;2024-02-26T12:44:17;9.00;;;5.38;;
20657;SDS011;10488;50.846;4.078;2024-02-26T12:46:42;5.95;;;4.82;;
20657;SDS011;10488;50.846;4.078;2024-02-26T12:49:08;5.07;;;4.45;;
20657;SDS011;10488;50.846;4.078;2024-02-26T12:51:39;6.70;;;4.70;;
20657;SDS011;10488;50.846;4.078;2024-02-26T12:54:06;4.82;;;4.30;;
20657;SDS011;10488;50.846;4.078;2024-02-26T12:56:33;9.45;;;4.88;;
20657;SDS011;10488;50.846;4.078;2024-02-26T12:58:59;4.30;;;3.75;;
20657;SDS011;10488;50.846;4.078;2024-02-26T13:01:25;7.00;;;5.22;;
20657;SDS011;10488;50.846;4.078;2024-02-26T13:03:52;7.68;;;5.47;;
20657;SDS011;10488;50.846;4.078;2024-02-26T13:06:18;6.25;;;4.88;;
20657;SDS011;10488;50.846;4.078;2024-02-26T13:08:47;6.32;;;5.20;;
20657;SDS011;10488;50.846;4.078;2024-02-26T13:11:14;7.00;;;5.72;;
20657;SDS011;10488;50.846;4.078;2024-02-26T13:13:40;7.20;;;5.72;;
20657;SDS011;10488;50.846;4.078;2024-02-26T13:16:07;6.33;;;4.87;;
20657;SDS011;10488;50.846;4.078;2024-02-26T13:18:35;5.90;;;5.03;;
20657;SDS011;10488;50.846;4.078;2024-02-26T13:21:11;6.90;;;5.40;;
20657;SDS011;10488;50.846;4.078;2024-02-26T13:23:38;6.72;;;5.75;;
20657;SDS011;10488;50.846;4.078;2024-02-26T13:26:05;7.78;;;6.15;;
20657;SDS011;10488;50.846;4.078;2024-02-26T13:28:31;7.97;;;5.50;;
20657;SDS011;10488;50.846;4.078;2024-02-26T13:30:57;6.60;;;4.78;;
20657;SDS011;10488;50.846;4.078;2024-02-26T13:33:24;8.18;;;5.75;;
20657;SDS011;10488;50.846;4.078;2024-02-26T13:35:51;6.82;;;4.60;;
20657;SDS011;10488;50.846;4.078;2024-02-26T13:38:17;6.90;;;5.40;;
20657;SDS011;10488;50.846;4.078;2024-02-26T13:40:43;7.78;;;5.20;;
20657;SDS011;10488;50.846;4.078;2024-02-26T13:43:09;7.20;;;5.25;;
20657;SDS011;10488;50.846;4.078;2024-02-26T13:45:35;6.25;;;5.28;;
20657;SDS011;10488;50.846;4.078;2024-02-26T13:48:05;6.70;;;5.00;;
20657;SDS011;10488;50.846;4.078;2024-02-26T13:50:32;5.43;;;4.90;;
20657;SDS011;10488;50.846;4.078;2024-02-26T13:52:58;6.20;;;5.15;;
20657;SDS011;10488;50.846;4.078;2024-02-26T13:55:27;6.63;;;5.18;;
20657;SDS011;10488;50.846;4.078;2024-02-26T13:57:55;7.40;;;5.53;;
20657;SDS011;10488;50.846;4.078;2024-02-26T14:00:21;6.95;;;4.93;;
20657;SDS011;10488;50.846;4.078;2024-02-26T14:02:47;6.95;;;5.30;;
20657;SDS011;10488;50.846;4.078;2024-02-26T14:05:13;8.45;;;5.25;;
20657;SDS011;10488;50.846;4.078;2024-02-26T14:07:39;6.95;;;5.25;;
20657;SDS011;10488;50.846;4.078;2024-02-26T14:10:05;8.43;;;4.95;;
20657;SDS011;10488;50.846;4.078;2024-02-26T14:12:31;7.03;;;5.00;;
20657;SDS011;10488;50.846;4.078;2024-02-26T14:14:57;6.93;;;5.22;;
20657;SDS011;10488;50.846;4.078;2024-02-26T14:17:25;8.18;;;5.00;;
20657;SDS011;10488;50.846;4.078;2024-02-26T14:19:51;6.05;;;4.22;;
20657;SDS011;10488;50.846;4.078;2024-02-26T14:22:17;7.97;;;5.00;;
20657;SDS011;10488;50.846;4.078;2024-02-26T14:24:42;8.10;;;5.38;;
20657;SDS011;10488;50.846;4.078;2024-02-26T14:27:09;6.72;;;3.92;;
20657;SDS011;10488;50.846;4.078;2024-02-26T14:29:36;6.10;;;4.07;;
20657;SDS011;10488;50.846;4.078;2024-02-26T14:32:04;4.13;;;3.67;;
20657;SDS011;10488;50.846;4.078;2024-02-26T14:34:30;5.40;;;4.13;;
20657;SDS011;10488;50.846;4.078;2024-02-26T14:36:56;4.85;;;4.20;;
20657;SDS011;10488;50.846;4.078;2024-02-26T14:39:21;7.20;;;4.47;;
20657;SDS011;10488;50.846;4.078;2024-02-26T14:41:47;5.53;;;4.60;;
20657;SDS011;10488;50.846;4.078;2024-02-26T14:44:12;5.22;;;4.63;;
20657;SDS011;10488;50.846;4.078;2024-02-26T14:46:38;6.35;;;4.80;;